createdAt,value
2018-09-03T00:00:16.076Z,0.00
2018-09-03T00:01:16.082Z,0.00
2018-09-03T00:02:16.077Z,0.00
2018-09-03T00:03:16.075Z,0.00
2018-09-03T00:04:16.073Z,0.00
2018-09-03T00:05:16.067Z,0.00
2018-09-03T00:06:16.065Z,0.00
2018-09-03T00:07:16.068Z,0.00
2018-09-03T00:08:16.063Z,0.00
2018-09-03T00:09:16.067Z,0.00
2018-09-03T00:10:16.063Z,0.00
2018-09-03T00:11:16.056Z,0.00
2018-09-03T00:12:16.057Z,0.00
2018-09-03T00:13:16.057Z,0.00
2018-09-03T00:14:16.056Z,0.00
2018-09-03T00:15:16.053Z,0.00
2018-09-03T00:16:16.052Z,0.00
2018-09-03T00:17:16.045Z,0.00
2018-09-03T00:18:16.043Z,0.00
2018-09-03T00:19:16.040Z,0.00
2018-09-03T00:20:16.039Z,0.00
2018-09-03T00:21:16.042Z,0.00
2018-09-03T00:22:16.042Z,0.00
2018-09-03T00:23:16.037Z,0.00
2018-09-03T00:24:16.040Z,0.00
2018-09-03T00:25:16.032Z,0.00
2018-09-03T00:26:16.026Z,0.00
2018-09-03T00:27:16.078Z,0.00
2018-09-03T00:28:16.027Z,0.00
2018-09-03T00:29:16.020Z,0.00
2018-09-03T00:30:16.021Z,0.00
2018-09-03T00:31:16.017Z,0.00
2018-09-03T00:32:16.015Z,0.00
2018-09-03T00:33:16.017Z,0.00
2018-09-03T00:34:16.015Z,0.00
2018-09-03T00:35:16.013Z,0.00
2018-09-03T00:36:16.015Z,0.00
2018-09-03T00:37:16.004Z,0.00
2018-09-03T00:38:16.001Z,0.00
2018-09-03T00:39:15.999Z,0.00
2018-09-03T00:40:15.997Z,0.00
2018-09-03T00:41:15.998Z,0.00
2018-09-03T00:42:15.996Z,0.00
2018-09-03T00:43:15.991Z,0.00
2018-09-03T00:44:15.989Z,0.00
2018-09-03T00:45:15.990Z,0.00
2018-09-03T00:46:15.988Z,0.00
2018-09-03T00:47:15.988Z,0.00
2018-09-03T00:48:15.986Z,0.00
2018-09-03T00:49:15.978Z,0.00
2018-09-03T00:50:15.979Z,0.00
2018-09-03T00:51:15.975Z,0.00
2018-09-03T00:52:15.972Z,0.00
2018-09-03T00:53:15.974Z,0.00
2018-09-03T00:54:15.973Z,0.00
2018-09-03T00:55:15.970Z,0.00
2018-09-03T00:56:15.968Z,0.00
2018-09-03T00:57:15.961Z,0.00
2018-09-03T00:58:15.959Z,0.00
2018-09-03T00:59:15.963Z,0.00
2018-09-03T01:00:15.959Z,0.00
2018-09-03T01:01:15.953Z,0.00
2018-09-03T01:02:15.950Z,0.00
2018-09-03T01:03:15.949Z,0.00
2018-09-03T01:04:15.946Z,0.00
2018-09-03T01:05:15.949Z,0.00
2018-09-03T01:06:15.949Z,0.00
2018-09-03T01:07:15.945Z,0.00
2018-09-03T01:08:15.944Z,0.00
2018-09-03T01:09:15.936Z,0.00
2018-09-03T01:10:15.933Z,0.00
2018-09-03T01:11:15.931Z,0.00
2018-09-03T01:12:15.929Z,0.00
2018-09-03T01:13:15.932Z,0.00
2018-09-03T01:14:15.928Z,0.00
2018-09-03T01:15:15.924Z,0.00
2018-09-03T01:16:15.921Z,0.00
2018-09-03T01:17:15.920Z,0.00
2018-09-03T01:18:15.919Z,0.00
2018-09-03T01:19:15.918Z,0.00
2018-09-03T01:20:15.916Z,0.00
2018-09-03T01:21:15.908Z,0.00
2018-09-03T01:22:15.905Z,0.00
2018-09-03T01:23:15.903Z,0.00
2018-09-03T01:24:15.901Z,0.00
2018-09-03T01:25:15.902Z,0.00
2018-09-03T01:26:15.899Z,0.00
2018-09-03T01:27:15.899Z,0.00
2018-09-03T01:28:15.896Z,0.00
2018-09-03T01:29:15.892Z,0.00
2018-09-03T01:30:15.886Z,0.00
2018-09-03T01:31:15.888Z,0.00
2018-09-03T01:32:15.887Z,0.00
2018-09-03T01:33:15.881Z,0.00
2018-09-03T01:34:15.878Z,0.00
2018-09-03T01:35:15.874Z,0.00
2018-09-03T01:36:15.871Z,0.00
2018-09-03T01:37:15.873Z,0.00
2018-09-03T01:38:15.870Z,0.00
2018-09-03T01:39:15.870Z,0.00
2018-09-03T01:40:15.866Z,0.00
2018-09-03T01:41:15.859Z,0.00
2018-09-03T01:42:15.858Z,0.00
2018-09-03T01:43:15.860Z,0.00
2018-09-03T01:44:15.856Z,0.00
2018-09-03T01:45:15.855Z,0.00
2018-09-03T01:46:15.854Z,0.00
2018-09-03T01:47:15.847Z,0.00
2018-09-03T01:48:15.844Z,0.00
2018-09-03T01:49:15.851Z,0.00
2018-09-03T01:50:15.844Z,0.00
2018-09-03T01:51:15.845Z,0.00
2018-09-03T01:52:15.843Z,0.00
2018-09-03T01:53:15.834Z,0.00
2018-09-03T01:54:15.831Z,0.00
2018-09-03T01:55:15.830Z,0.00
2018-09-03T01:56:15.827Z,0.00
2018-09-03T01:57:15.832Z,0.00
2018-09-03T01:58:15.826Z,0.00
2018-09-03T01:59:15.826Z,0.00
2018-09-03T02:00:15.825Z,0.00
2018-09-03T02:01:15.815Z,0.00
2018-09-03T02:02:15.816Z,0.00
2018-09-03T02:03:15.816Z,0.00
2018-09-03T02:04:15.816Z,0.00
2018-09-03T02:05:15.807Z,0.00
2018-09-03T02:06:15.807Z,0.00
2018-09-03T02:07:15.803Z,0.00
2018-09-03T02:08:15.802Z,0.00
2018-09-03T02:09:15.806Z,0.00
2018-09-03T02:10:15.801Z,0.00
2018-09-03T02:11:15.799Z,0.00
2018-09-03T02:12:15.797Z,0.00
2018-09-03T02:13:15.790Z,0.00
2018-09-03T02:14:15.788Z,0.00
2018-09-03T02:15:15.787Z,0.00
2018-09-03T02:16:15.786Z,0.00
2018-09-03T02:17:15.787Z,0.00
2018-09-03T02:18:15.786Z,0.00
2018-09-03T02:19:15.782Z,0.00
2018-09-03T02:20:15.778Z,0.00
2018-09-03T02:21:15.780Z,0.00
2018-09-03T02:22:15.778Z,0.00
2018-09-03T02:23:15.774Z,0.00
2018-09-03T02:24:15.772Z,0.00
2018-09-03T02:25:15.767Z,0.00
2018-09-03T02:26:15.764Z,0.00
2018-09-03T02:27:15.764Z,0.00
2018-09-03T02:28:15.761Z,0.00
2018-09-03T02:29:15.764Z,0.00
2018-09-03T02:30:15.762Z,0.00
2018-09-03T02:31:15.760Z,0.00
2018-09-03T02:32:15.758Z,0.00
2018-09-03T02:33:15.751Z,0.00
2018-09-03T02:34:15.750Z,0.00
2018-09-03T02:35:15.757Z,0.00
2018-09-03T02:36:15.749Z,0.00
2018-09-03T02:37:15.742Z,0.00
2018-09-03T02:38:15.749Z,0.00
2018-09-03T02:39:15.740Z,0.00
2018-09-03T02:40:15.739Z,0.00
2018-09-03T02:41:15.741Z,0.00
2018-09-03T02:42:15.739Z,0.00
2018-09-03T02:43:15.737Z,0.00
2018-09-03T02:44:15.737Z,0.00
2018-09-03T02:45:15.729Z,0.00
2018-09-03T02:46:15.726Z,0.00
2018-09-03T02:47:15.724Z,0.00
2018-09-03T02:48:15.724Z,0.00
2018-09-03T02:49:15.725Z,0.00
2018-09-03T02:50:15.722Z,0.00
2018-09-03T02:51:15.717Z,0.00
2018-09-03T02:52:15.716Z,0.00
2018-09-03T02:53:15.717Z,0.00
2018-09-03T02:54:15.719Z,0.00
2018-09-03T02:55:15.714Z,0.00
2018-09-03T02:56:15.714Z,0.00
2018-09-03T02:57:15.705Z,0.00
2018-09-03T02:58:15.704Z,0.00
2018-09-03T02:59:15.703Z,0.00
2018-09-03T03:00:15.701Z,0.00
2018-09-03T03:01:15.704Z,0.00
2018-09-03T03:02:15.702Z,0.00
2018-09-03T03:03:15.699Z,0.00
2018-09-03T03:04:15.697Z,0.00
2018-09-03T03:05:15.690Z,0.00
2018-09-03T03:06:15.688Z,0.00
2018-09-03T03:07:15.693Z,0.00
2018-09-03T03:08:15.690Z,0.00
2018-09-03T03:09:15.684Z,0.00
2018-09-03T03:10:15.682Z,0.00
2018-09-03T03:11:15.680Z,0.00
2018-09-03T03:12:15.678Z,0.00
2018-09-03T03:13:15.705Z,0.00
2018-09-03T03:14:15.679Z,0.00
2018-09-03T03:15:15.677Z,0.00
2018-09-03T03:16:15.675Z,0.00
2018-09-03T03:17:15.668Z,0.00
2018-09-03T03:18:15.669Z,0.00
2018-09-03T03:19:15.671Z,0.00
2018-09-03T03:20:15.666Z,0.00
2018-09-03T03:21:15.666Z,0.00
2018-09-03T03:22:15.663Z,0.00
2018-09-03T03:23:15.661Z,0.00
2018-09-03T03:24:15.659Z,0.00
2018-09-03T03:25:15.671Z,0.00
2018-09-03T03:26:15.655Z,0.00
2018-09-03T03:27:15.659Z,0.00
2018-09-03T03:28:15.657Z,0.00
2018-09-03T03:29:15.645Z,0.00
2018-09-03T03:30:15.645Z,0.00
2018-09-03T03:31:15.643Z,0.00
2018-09-03T03:32:15.647Z,0.00
2018-09-03T03:33:15.642Z,0.00
2018-09-03T03:34:15.644Z,0.00
2018-09-03T03:35:15.637Z,0.00
2018-09-03T03:36:15.636Z,0.00
2018-09-03T03:37:15.628Z,0.00
2018-09-03T03:38:15.626Z,0.00
2018-09-03T03:39:15.631Z,0.00
2018-09-03T03:40:15.627Z,0.00
2018-09-03T03:41:15.620Z,0.00
2018-09-03T03:42:15.618Z,0.00
2018-09-03T03:43:15.616Z,0.00
2018-09-03T03:44:15.616Z,0.00
2018-09-03T03:45:15.617Z,0.00
2018-09-03T03:46:15.614Z,0.00
2018-09-03T03:47:15.613Z,0.00
2018-09-03T03:48:15.614Z,0.00
2018-09-03T03:49:15.603Z,0.00
2018-09-03T03:50:15.601Z,0.00
2018-09-03T03:51:15.598Z,0.00
2018-09-03T03:52:15.598Z,0.00
2018-09-03T03:53:15.598Z,0.00
2018-09-03T03:54:15.597Z,0.00
2018-09-03T03:55:15.679Z,0.00
2018-09-03T03:56:15.589Z,0.00
2018-09-03T03:57:15.590Z,0.00
2018-09-03T03:58:15.586Z,0.00
2018-09-03T03:59:15.586Z,0.00
2018-09-03T04:00:15.584Z,0.00
2018-09-03T04:01:15.576Z,0.00
2018-09-03T04:02:15.574Z,0.00
2018-09-03T04:03:15.571Z,0.00
2018-09-03T04:04:15.570Z,0.00
2018-09-03T04:05:15.575Z,0.00
2018-09-03T04:06:15.570Z,0.00
2018-09-03T04:07:15.567Z,0.00
2018-09-03T04:08:15.569Z,0.00
2018-09-03T04:09:15.556Z,0.00
2018-09-03T04:10:15.554Z,0.00
2018-09-03T04:11:15.556Z,0.00
2018-09-03T04:12:15.554Z,0.00
2018-09-03T04:13:15.548Z,0.00
2018-09-03T04:14:15.545Z,0.00
2018-09-03T04:15:15.542Z,0.00
2018-09-03T04:16:15.541Z,0.00
2018-09-03T04:17:15.545Z,0.00
2018-09-03T04:18:15.541Z,0.00
2018-09-03T04:19:15.538Z,0.00
2018-09-03T04:20:15.536Z,0.00
2018-09-03T04:21:15.530Z,0.00
2018-09-03T04:22:15.527Z,4.00
2018-09-03T04:23:15.645Z,4.00
2018-09-03T04:24:15.521Z,4.00
2018-09-03T04:25:15.524Z,4.00
2018-09-03T04:26:15.521Z,4.00
2018-09-03T04:27:15.514Z,4.00
2018-09-03T04:28:15.512Z,4.00
2018-09-03T04:29:15.513Z,4.00
2018-09-03T04:30:15.512Z,4.00
2018-09-03T04:31:15.511Z,8.00
2018-09-03T04:32:15.509Z,8.00
2018-09-03T04:33:15.501Z,8.00
2018-09-03T04:34:15.498Z,12.00
2018-09-03T04:35:15.497Z,12.00
2018-09-03T04:36:15.494Z,12.00
2018-09-03T04:37:15.494Z,16.00
2018-09-03T04:38:15.493Z,16.00
2018-09-03T04:39:15.495Z,16.00
2018-09-03T04:40:15.489Z,16.00
2018-09-03T04:41:15.485Z,16.00
2018-09-03T04:42:15.480Z,20.00
2018-09-03T04:43:15.483Z,20.00
2018-09-03T04:44:15.481Z,24.00
2018-09-03T04:45:15.473Z,28.00
2018-09-03T04:46:15.472Z,36.00
2018-09-03T04:47:15.468Z,40.00
2018-09-03T04:48:15.473Z,44.00
2018-09-03T04:49:15.470Z,52.00
2018-09-03T04:50:15.467Z,60.00
2018-09-03T04:51:15.464Z,64.00
2018-09-03T04:52:15.462Z,68.00
2018-09-03T04:53:15.454Z,68.00
2018-09-03T04:54:15.453Z,72.00
2018-09-03T04:55:15.460Z,76.00
2018-09-03T04:56:15.450Z,84.00
2018-09-03T04:57:15.452Z,88.00
2018-09-03T04:58:15.450Z,100.00
2018-09-03T04:59:15.443Z,104.00
2018-09-03T05:00:15.451Z,116.00
2018-09-03T05:01:15.444Z,132.00
2018-09-03T05:02:15.443Z,148.00
2018-09-03T05:03:15.439Z,164.00
2018-09-03T05:04:15.437Z,180.00
2018-09-03T05:05:15.445Z,196.00
2018-09-03T05:06:15.428Z,188.00
2018-09-03T05:07:15.426Z,188.00
2018-09-03T05:08:15.425Z,184.00
2018-09-03T05:09:15.424Z,192.00
2018-09-03T05:10:15.422Z,208.00
2018-09-03T05:11:15.422Z,216.00
2018-09-03T05:12:15.422Z,236.00
2018-09-03T05:13:15.412Z,244.00
2018-09-03T05:14:15.411Z,268.00
2018-09-03T05:15:15.413Z,272.00
2018-09-03T05:16:15.410Z,280.00
2018-09-03T05:17:15.404Z,296.00
2018-09-03T05:18:15.402Z,320.00
2018-09-03T05:19:15.400Z,356.00
2018-09-03T05:20:15.398Z,384.00
2018-09-03T05:21:15.399Z,384.00
2018-09-03T05:22:15.396Z,388.00
2018-09-03T05:23:15.394Z,404.00
2018-09-03T05:24:15.398Z,436.00
2018-09-03T05:25:15.387Z,476.00
2018-09-03T05:26:15.383Z,520.00
2018-09-03T05:27:15.381Z,552.00
2018-09-03T05:28:15.381Z,596.00
2018-09-03T05:29:15.383Z,628.00
2018-09-03T05:30:15.381Z,672.00
2018-09-03T05:31:15.459Z,732.00
2018-09-03T05:32:15.372Z,768.00
2018-09-03T05:33:15.374Z,816.00
2018-09-03T05:34:15.372Z,868.00
2018-09-03T05:35:15.369Z,956.00
2018-09-03T05:36:15.367Z,1024.00
2018-09-03T05:37:15.365Z,1116.00
2018-09-03T05:38:15.360Z,1248.00
2018-09-03T05:39:15.358Z,1432.00
2018-09-03T05:40:15.355Z,1600.00
2018-09-03T05:41:15.358Z,1660.00
2018-09-03T05:42:15.356Z,1676.00
2018-09-03T05:43:15.405Z,1744.00
2018-09-03T05:44:15.352Z,1940.00
2018-09-03T05:45:15.345Z,2164.00
2018-09-03T05:46:15.343Z,2288.00
2018-09-03T05:47:15.348Z,2312.00
2018-09-03T05:48:15.346Z,2288.00
2018-09-03T05:49:15.343Z,2292.00
2018-09-03T05:50:15.376Z,2368.00
2018-09-03T05:51:15.334Z,2480.00
2018-09-03T05:52:15.334Z,2460.00
2018-09-03T05:53:15.334Z,2340.00
2018-09-03T05:54:15.337Z,2136.00
2018-09-03T05:55:15.331Z,1848.00
2018-09-03T05:56:15.330Z,1608.00
2018-09-03T05:57:15.323Z,1480.00
2018-09-03T05:58:15.321Z,1508.00
2018-09-03T05:59:15.461Z,1560.00
2018-09-03T06:00:15.322Z,1632.00
2018-09-03T06:01:15.320Z,1656.00
2018-09-03T06:02:15.319Z,1716.00
2018-09-03T06:03:15.312Z,1704.00
2018-09-03T06:04:15.311Z,1764.00
2018-09-03T06:05:15.314Z,1928.00
2018-09-03T06:06:15.313Z,2248.00
2018-09-03T06:07:15.313Z,2592.00
2018-09-03T06:08:15.311Z,2780.00
2018-09-03T06:09:15.305Z,2976.00
2018-09-03T06:10:15.301Z,3120.00
2018-09-03T06:11:15.482Z,3304.00
2018-09-03T06:12:15.298Z,3420.00
2018-09-03T06:13:15.301Z,3352.00
2018-09-03T06:14:15.299Z,3212.00
2018-09-03T06:15:15.298Z,3028.00
2018-09-03T06:16:15.296Z,2848.00
2018-09-03T06:17:15.289Z,2760.00
2018-09-03T06:18:15.288Z,2764.00
2018-09-03T06:19:15.292Z,2832.00
2018-09-03T06:20:15.290Z,2964.00
2018-09-03T06:21:15.283Z,3156.00
2018-09-03T06:22:15.284Z,3276.00
2018-09-03T06:23:15.282Z,3124.00
2018-09-03T06:24:15.281Z,2924.00
2018-09-03T06:25:15.284Z,2760.00
2018-09-03T06:26:15.286Z,2548.00
2018-09-03T06:27:15.283Z,2360.00
2018-09-03T06:28:15.280Z,2516.00
2018-09-03T06:29:15.274Z,2772.00
2018-09-03T06:30:15.276Z,3184.00
2018-09-03T06:31:15.272Z,3508.00
2018-09-03T06:32:15.272Z,3704.00
2018-09-03T06:33:15.273Z,3852.00
2018-09-03T06:34:15.276Z,4312.00
2018-09-03T06:35:15.266Z,4836.00
2018-09-03T06:36:15.270Z,5008.00
2018-09-03T06:37:15.286Z,5024.00
2018-09-03T06:38:15.270Z,4624.00
2018-09-03T06:39:15.365Z,4096.00
2018-09-03T06:40:15.268Z,3704.00
2018-09-03T06:41:15.259Z,3252.00
2018-09-03T06:42:15.259Z,3448.00
2018-09-03T06:43:15.257Z,3548.00
2018-09-03T06:44:15.258Z,3424.00
2018-09-03T06:45:15.259Z,2944.00
2018-09-03T06:46:15.261Z,2604.00
2018-09-03T06:47:15.259Z,2372.00
2018-09-03T06:48:15.258Z,2204.00
2018-09-03T06:49:15.252Z,2028.00
2018-09-03T06:50:15.249Z,1836.00
2018-09-03T06:51:15.255Z,1624.00
2018-09-03T06:52:15.254Z,1476.00
2018-09-03T06:53:15.246Z,1360.00
2018-09-03T06:54:15.245Z,1288.00
2018-09-03T06:55:15.244Z,1276.00
2018-09-03T06:56:15.246Z,1308.00
2018-09-03T06:57:15.245Z,1408.00
2018-09-03T06:58:15.244Z,1528.00
2018-09-03T06:59:15.244Z,1660.00
2018-09-03T07:00:15.243Z,1776.00
2018-09-03T07:01:15.236Z,1864.00
2018-09-03T07:02:15.235Z,1848.00
2018-09-03T07:03:15.234Z,1816.00
2018-09-03T07:04:15.232Z,1776.00
2018-09-03T07:05:15.236Z,1580.00
2018-09-03T07:06:15.236Z,1696.00
2018-09-03T07:07:15.228Z,1780.00
2018-09-03T07:08:15.226Z,1848.00
2018-09-03T07:09:15.229Z,2096.00
2018-09-03T07:10:15.228Z,2496.00
2018-09-03T07:11:15.225Z,2980.00
2018-09-03T07:12:15.226Z,3560.00
2018-09-03T07:13:15.221Z,4108.00
2018-09-03T07:14:15.217Z,4584.00
2018-09-03T07:15:15.218Z,5048.00
2018-09-03T07:16:15.215Z,5308.00
2018-09-03T07:17:15.217Z,4960.00
2018-09-03T07:18:15.216Z,4432.00
2018-09-03T07:19:15.216Z,4148.00
2018-09-03T07:20:15.218Z,3612.00
2018-09-03T07:21:15.210Z,3376.00
2018-09-03T07:22:15.208Z,3456.00
2018-09-03T07:23:15.212Z,3736.00
2018-09-03T07:24:15.211Z,4088.00
2018-09-03T07:25:15.204Z,4652.00
2018-09-03T07:26:15.206Z,5356.00
2018-09-03T07:27:15.206Z,5860.00
2018-09-03T07:28:15.205Z,6064.00
2018-09-03T07:29:15.205Z,6520.00
2018-09-03T07:30:15.205Z,6652.00
2018-09-03T07:31:15.203Z,6292.00
2018-09-03T07:32:15.204Z,5772.00
2018-09-03T07:33:15.197Z,5420.00
2018-09-03T07:34:15.198Z,5152.00
2018-09-03T07:35:15.236Z,4856.00
2018-09-03T07:36:15.201Z,4792.00
2018-09-03T07:37:15.200Z,4748.00
2018-09-03T07:38:15.199Z,4516.00
2018-09-03T07:39:15.194Z,4404.00
2018-09-03T07:40:15.194Z,4000.00
2018-09-03T07:41:15.198Z,3476.00
2018-09-03T07:42:15.197Z,3068.00
2018-09-03T07:43:15.197Z,2548.00
2018-09-03T07:44:15.254Z,2240.00
2018-09-03T07:45:15.190Z,2020.00
2018-09-03T07:46:15.190Z,2248.00
2018-09-03T07:47:15.194Z,2556.00
2018-09-03T07:48:15.196Z,2576.00
2018-09-03T07:49:15.188Z,2392.00
2018-09-03T07:50:15.188Z,2224.00
2018-09-03T07:51:15.188Z,2132.00
2018-09-03T07:52:15.188Z,2052.00
2018-09-03T07:53:15.193Z,2208.00
2018-09-03T07:54:15.189Z,2396.00
2018-09-03T07:55:15.189Z,2368.00
2018-09-03T07:56:15.183Z,2288.00
2018-09-03T07:57:15.187Z,2184.00
2018-09-03T07:58:15.186Z,2012.00
2018-09-03T07:59:15.184Z,1772.00
2018-09-03T08:00:15.185Z,1480.00
2018-09-03T08:01:15.266Z,1380.00
2018-09-03T08:02:15.177Z,1368.00
2018-09-03T08:03:15.176Z,1364.00
2018-09-03T08:04:15.176Z,1320.00
2018-09-03T08:05:15.178Z,1232.00
2018-09-03T08:06:15.176Z,1140.00
2018-09-03T08:07:15.240Z,1092.00
2018-09-03T08:08:15.176Z,1060.00
2018-09-03T08:09:15.169Z,1120.00
2018-09-03T08:10:15.169Z,1072.00
2018-09-03T08:11:15.172Z,1124.00
2018-09-03T08:12:15.170Z,1272.00
2018-09-03T08:13:15.163Z,1448.00
2018-09-03T08:14:15.165Z,1712.00
2018-09-03T08:15:15.161Z,2120.00
2018-09-03T08:16:15.161Z,2484.00
2018-09-03T08:17:15.164Z,2632.00
2018-09-03T08:18:15.160Z,2660.00
2018-09-03T08:19:15.159Z,2664.00
2018-09-03T08:20:15.157Z,2960.00
2018-09-03T08:21:15.150Z,3320.00
2018-09-03T08:22:15.148Z,3244.00
2018-09-03T08:23:15.146Z,3044.00
2018-09-03T08:24:15.147Z,3192.00
2018-09-03T08:25:15.147Z,3068.00
2018-09-03T08:26:15.144Z,3144.00
2018-09-03T08:27:15.138Z,3352.00
2018-09-03T08:28:15.137Z,3288.00
2018-09-03T08:29:15.139Z,2948.00
2018-09-03T08:30:15.153Z,2600.00
2018-09-03T08:31:15.135Z,2268.00
2018-09-03T08:32:15.138Z,2172.00
2018-09-03T08:33:15.124Z,2164.00
2018-09-03T08:34:15.123Z,2252.00
2018-09-03T08:35:15.120Z,2484.00
2018-09-03T08:36:15.122Z,2980.00
2018-09-03T08:37:15.120Z,3948.00
2018-09-03T08:38:15.118Z,4892.00
2018-09-03T08:39:15.118Z,5176.00
2018-09-03T08:40:15.114Z,4872.00
2018-09-03T08:41:15.107Z,3980.00
2018-09-03T08:42:15.105Z,3188.00
2018-09-03T08:43:15.108Z,2688.00
2018-09-03T08:44:15.107Z,2640.00
2018-09-03T08:45:15.099Z,2900.00
2018-09-03T08:46:15.097Z,3088.00
2018-09-03T08:47:15.094Z,3220.00
2018-09-03T08:48:15.092Z,3280.00
2018-09-03T08:49:15.094Z,3340.00
2018-09-03T08:50:15.110Z,3380.00
2018-09-03T08:51:15.090Z,3684.00
2018-09-03T08:52:15.089Z,4256.00
2018-09-03T08:53:15.083Z,4316.00
2018-09-03T08:54:15.079Z,4348.00
2018-09-03T08:55:15.076Z,4864.00
2018-09-03T08:56:15.074Z,5856.00
2018-09-03T08:57:15.074Z,6844.00
2018-09-03T08:58:15.072Z,6092.00
2018-09-03T08:59:15.066Z,4800.00
2018-09-03T09:00:15.065Z,4112.00
2018-09-03T09:01:15.067Z,4160.00
2018-09-03T09:02:15.064Z,4064.00
2018-09-03T09:03:15.063Z,3640.00
2018-09-03T09:04:15.062Z,3272.00
2018-09-03T09:05:15.053Z,3060.00
2018-09-03T09:06:15.053Z,3172.00
2018-09-03T09:07:15.052Z,3384.00
2018-09-03T09:08:15.049Z,3556.00
2018-09-03T09:09:15.051Z,3684.00
2018-09-03T09:10:15.050Z,3612.00
2018-09-03T09:11:15.048Z,3536.00
2018-09-03T09:12:15.045Z,3660.00
2018-09-03T09:13:15.039Z,3800.00
2018-09-03T09:14:15.036Z,3512.00
2018-09-03T09:15:15.040Z,3044.00
2018-09-03T09:16:15.038Z,2808.00
2018-09-03T09:17:15.032Z,2948.00
2018-09-03T09:18:15.029Z,3308.00
2018-09-03T09:19:15.027Z,3832.00
2018-09-03T09:20:15.026Z,4292.00
2018-09-03T09:21:15.027Z,4124.00
2018-09-03T09:22:15.026Z,3504.00
2018-09-03T09:23:15.025Z,3064.00
2018-09-03T09:24:15.028Z,2968.00
2018-09-03T09:25:15.019Z,2860.00
2018-09-03T09:26:15.014Z,2816.00
2018-09-03T09:27:15.023Z,2656.00
2018-09-03T09:28:15.010Z,2644.00
2018-09-03T09:29:15.041Z,2676.00
2018-09-03T09:30:15.011Z,2764.00
2018-09-03T09:31:15.004Z,2808.00
2018-09-03T09:32:15.002Z,2700.00
2018-09-03T09:33:15.029Z,2556.00
2018-09-03T09:34:15.005Z,2536.00
2018-09-03T09:35:15.006Z,2680.00
2018-09-03T09:36:15.002Z,2888.00
2018-09-03T09:37:14.994Z,3152.00
2018-09-03T09:38:14.990Z,3608.00
2018-09-03T09:39:14.990Z,3912.00
2018-09-03T09:40:14.987Z,3904.00
2018-09-03T09:41:14.991Z,3804.00
2018-09-03T09:42:14.989Z,3860.00
2018-09-03T09:43:14.987Z,4076.00
2018-09-03T09:44:15.018Z,4228.00
2018-09-03T09:45:14.983Z,4032.00
2018-09-03T09:46:14.976Z,3884.00
2018-09-03T09:47:14.980Z,3848.00
2018-09-03T09:48:14.979Z,3972.00
2018-09-03T09:49:14.972Z,4028.00
2018-09-03T09:50:14.969Z,4056.00
2018-09-03T09:51:14.974Z,4000.00
2018-09-03T09:52:14.965Z,3860.00
2018-09-03T09:53:14.968Z,3928.00
2018-09-03T09:54:14.968Z,4392.00
2018-09-03T09:55:14.967Z,5288.00
2018-09-03T09:56:14.964Z,6308.00
2018-09-03T09:57:14.958Z,7496.00
2018-09-03T09:58:14.955Z,8628.00
2018-09-03T09:59:14.955Z,9660.00
2018-09-03T10:00:14.954Z,10888.00
2018-09-03T10:01:14.956Z,9972.00
2018-09-03T10:02:14.955Z,7772.00
2018-09-03T10:03:14.950Z,7272.00
2018-09-03T10:04:15.006Z,7360.00
2018-09-03T10:05:14.951Z,7688.00
2018-09-03T10:06:14.952Z,8284.00
2018-09-03T10:07:14.948Z,8340.00
2018-09-03T10:08:14.948Z,7512.00
2018-09-03T10:09:14.947Z,6584.00
2018-09-03T10:10:14.941Z,5964.00
2018-09-03T10:11:14.940Z,5696.00
2018-09-03T10:12:14.941Z,5672.00
2018-09-03T10:13:14.945Z,5948.00
2018-09-03T10:14:14.943Z,5900.00
2018-09-03T10:15:14.943Z,5676.00
2018-09-03T10:16:14.941Z,5332.00
2018-09-03T10:17:14.937Z,5196.00
2018-09-03T10:18:14.934Z,5092.00
2018-09-03T10:19:14.940Z,5416.00
2018-09-03T10:20:14.941Z,5284.00
2018-09-03T10:21:14.933Z,5140.00
2018-09-03T10:22:14.932Z,4808.00
2018-09-03T10:23:14.934Z,4588.00
2018-09-03T10:24:14.932Z,4556.00
2018-09-03T10:25:14.937Z,4968.00
2018-09-03T10:26:14.990Z,5360.00
2018-09-03T10:27:14.934Z,5888.00
2018-09-03T10:28:14.936Z,6756.00
2018-09-03T10:29:14.929Z,7164.00
2018-09-03T10:30:14.928Z,7228.00
2018-09-03T10:31:14.929Z,7572.00
2018-09-03T10:32:14.927Z,8056.00
2018-09-03T10:33:14.932Z,8376.00
2018-09-03T10:34:14.932Z,8628.00
2018-09-03T10:35:14.927Z,9124.00
2018-09-03T10:36:14.926Z,10316.00
2018-09-03T10:37:14.931Z,11476.00
2018-09-03T10:38:14.947Z,11008.00
2018-09-03T10:39:14.930Z,8868.00
2018-09-03T10:40:14.930Z,8204.00
2018-09-03T10:41:14.925Z,8136.00
2018-09-03T10:42:14.925Z,8484.00
2018-09-03T10:43:14.926Z,9328.00
2018-09-03T10:44:14.930Z,10072.00
2018-09-03T10:45:14.930Z,10752.00
2018-09-03T10:46:14.930Z,10968.00
2018-09-03T10:47:15.065Z,10888.00
2018-09-03T10:48:14.933Z,11792.00
2018-09-03T10:49:14.928Z,13456.00
2018-09-03T10:50:14.928Z,16192.00
2018-09-03T10:51:14.933Z,18656.00
2018-09-03T10:52:14.935Z,20064.00
2018-09-03T10:53:14.930Z,16576.00
2018-09-03T10:54:14.931Z,15640.00
2018-09-03T10:55:14.934Z,14988.00
2018-09-03T10:56:14.944Z,12200.00
2018-09-03T10:57:14.940Z,10064.00
2018-09-03T10:58:14.940Z,9676.00
2018-09-03T10:59:14.944Z,9776.00
2018-09-03T11:00:14.945Z,10628.00
2018-09-03T11:01:14.940Z,10896.00
2018-09-03T11:02:14.942Z,11168.00
2018-09-03T11:03:14.945Z,11692.00
2018-09-03T11:04:14.947Z,12352.00
2018-09-03T11:05:14.957Z,12188.00
2018-09-03T11:06:14.957Z,12948.00
2018-09-03T11:07:14.952Z,12944.00
2018-09-03T11:08:14.954Z,10916.00
2018-09-03T11:09:14.960Z,11076.00
2018-09-03T11:10:14.963Z,11544.00
2018-09-03T11:11:14.968Z,12264.00
2018-09-03T11:12:14.967Z,10796.00
2018-09-03T11:13:15.111Z,10264.00
2018-09-03T11:14:15.019Z,11172.00
2018-09-03T11:15:14.968Z,10544.00
2018-09-03T11:16:14.971Z,10084.00
2018-09-03T11:17:14.978Z,9768.00
2018-09-03T11:18:14.984Z,9160.00
2018-09-03T11:19:14.981Z,8756.00
2018-09-03T11:20:14.984Z,8148.00
2018-09-03T11:21:15.087Z,7724.00
2018-09-03T11:22:15.046Z,7336.00
2018-09-03T11:23:14.990Z,7076.00
2018-09-03T11:24:14.993Z,7300.00
2018-09-03T11:25:14.993Z,7488.00
2018-09-03T11:26:14.992Z,7680.00
2018-09-03T11:27:14.994Z,7888.00
2018-09-03T11:28:14.997Z,8392.00
2018-09-03T11:29:15.004Z,9104.00
2018-09-03T11:30:15.005Z,9404.00
2018-09-03T11:31:15.006Z,10468.00
2018-09-03T11:32:15.010Z,11448.00
2018-09-03T11:33:15.005Z,12440.00
2018-09-03T11:34:15.008Z,13928.00
2018-09-03T11:35:15.010Z,14252.00
2018-09-03T11:36:15.011Z,15108.00
2018-09-03T11:37:15.022Z,16088.00
2018-09-03T11:38:15.022Z,15832.00
2018-09-03T11:39:15.020Z,13316.00
2018-09-03T11:40:15.021Z,12232.00
2018-09-03T11:41:15.026Z,12868.00
2018-09-03T11:42:15.029Z,13292.00
2018-09-03T11:43:15.032Z,14736.00
2018-09-03T11:44:15.036Z,16992.00
2018-09-03T11:45:15.033Z,16736.00
2018-09-03T11:46:15.036Z,15556.00
2018-09-03T11:47:15.114Z,14984.00
2018-09-03T11:48:15.041Z,14920.00
2018-09-03T11:49:15.047Z,15248.00
2018-09-03T11:50:15.051Z,15052.00
2018-09-03T11:51:15.053Z,15248.00
2018-09-03T11:52:15.055Z,15864.00
2018-09-03T11:53:15.053Z,14856.00
2018-09-03T11:54:15.058Z,14400.00
2018-09-03T11:55:15.064Z,15692.00
2018-09-03T11:56:15.068Z,15920.00
2018-09-03T11:57:15.066Z,18208.00
2018-09-03T11:58:15.070Z,15268.00
2018-09-03T11:59:15.073Z,12648.00
2018-09-03T12:00:15.076Z,12708.00
2018-09-03T12:01:15.086Z,11536.00
2018-09-03T12:02:15.094Z,11292.00
2018-09-03T12:03:15.092Z,12228.00
2018-09-03T12:04:15.097Z,13132.00
2018-09-03T12:05:15.094Z,13296.00
2018-09-03T12:06:15.097Z,14948.00
2018-09-03T12:07:15.101Z,16768.00
2018-09-03T12:08:15.104Z,18624.00
2018-09-03T12:09:15.112Z,21824.00
2018-09-03T12:10:15.115Z,21536.00
2018-09-03T12:11:15.116Z,18656.00
2018-09-03T12:12:15.121Z,17312.00
2018-09-03T12:13:15.126Z,17952.00
2018-09-03T12:14:15.130Z,15036.00
2018-09-03T12:15:15.135Z,12892.00
2018-09-03T12:16:15.140Z,12768.00
2018-09-03T12:17:15.139Z,13156.00
2018-09-03T12:18:15.142Z,12988.00
2018-09-03T12:19:15.146Z,12908.00
2018-09-03T12:20:15.151Z,12528.00
2018-09-03T12:21:15.261Z,12644.00
2018-09-03T12:22:15.164Z,13128.00
2018-09-03T12:23:15.167Z,12356.00
2018-09-03T12:24:15.172Z,12540.00
2018-09-03T12:25:15.172Z,13504.00
2018-09-03T12:26:15.175Z,10368.00
2018-09-03T12:27:15.183Z,8796.00
2018-09-03T12:28:15.187Z,7264.00
2018-09-03T12:29:15.188Z,6632.00
2018-09-03T12:30:15.190Z,6564.00